This is the latest recevied weather packets stored in our database for station/object Winterlng. If no packets are shown the sender has not sent any weather packets the latest 10 day(s).
| Time | Temp. | Humidity | Pressure | Rain* | Wind** | Luminosity | Snow |
|---|---|---|---|---|---|---|---|
| 1777755729 | 12.78° C | 59% | 0 hPa | 0 mm | - | - | - |
| 1777753930 | 13.89° C | 56% | 0 hPa | 0 mm | - | - | - |
| 1777752130 | 15° C | 53% | 0 hPa | 0 mm | - | - | - |
| 1777750335 | 16.67° C | 49% | 0 hPa | 0 mm | - | - | - |
| 1777748537 | 18.33° C | 43% | 0 hPa | 0 mm | - | - | - |
| 1777746730 | 19.44° C | 40% | 0 hPa | 0 mm | - | - | - |
| 1777744931 | 20.56° C | 38% | 0 hPa | 0 mm | - | - | - |
| 1777743130 | 21.11° C | 37% | 0 hPa | 0 mm | - | - | - |
| 1777741330 | 21.67° C | 35% | 0 hPa | 0 mm | - | - | - |
| 1777739530 | 21.67° C | 34% | 0 hPa | 0 mm | - | - | - |
| 1777737733 | 22.22° C | 34% | 0 hPa | 0 mm | - | - | - |
| 1777735931 | 22.78° C | 33% | 0 hPa | 0 mm | - | - | - |
| 1777734130 | 23.33° C | 32% | 0 hPa | 0 mm | - | - | - |
| 1777732330 | 23.33° C | 33% | 0 hPa | 0 mm | - | - | - |
| 1777730530 | 23.33° C | 32% | 0 hPa | 0 mm | - | - | - |
| 1777728731 | 23.89° C | 31% | 0 hPa | 0 mm | - | - | - |
| 1777726930 | 23.89° C | 30% | 0 hPa | 0 mm | - | - | - |
| 1777725131 | 22.22° C | 31% | 0 hPa | 0 mm | - | - | - |
| 1777723330 | 22.22° C | 30% | 0 hPa | 0 mm | - | - | - |
| 1777721531 | 22.78° C | 31% | 0 hPa | 0 mm | - | - | - |
| 1777719731 | 22.78° C | 27% | 0 hPa | 0 mm | - | - | - |
| 1777717930 | 21.67° C | 30% | 0 hPa | 0 mm | - | - | - |
| 1777716131 | 21.67° C | 31% | 0 hPa | 0 mm | - | - | - |
| 1777714331 | 21.67° C | 32% | 0 hPa | 0 mm | - | - | - |
| 1777712531 | 20° C | 37% | 0 hPa | 0 mm | - | - | - |
* Rain since midnight (hover to see other rain measurements)
** Current wind speed in m/s (hover to see current wind gust speed)